createdAt,value
2017-06-30T00:00:31.878Z,992.62
2017-06-30T00:01:31.867Z,992.62
2017-06-30T00:02:31.857Z,992.63
2017-06-30T00:03:31.844Z,992.64
2017-06-30T00:04:31.832Z,992.66
2017-06-30T00:05:31.823Z,992.65
2017-06-30T00:06:31.810Z,992.68
2017-06-30T00:07:31.800Z,992.65
2017-06-30T00:08:31.790Z,992.67
2017-06-30T00:09:31.777Z,992.71
2017-06-30T00:10:31.769Z,992.67
2017-06-30T00:11:31.758Z,992.69
2017-06-30T00:12:31.746Z,992.65
2017-06-30T00:13:31.734Z,992.69
2017-06-30T00:14:31.724Z,992.66
2017-06-30T00:15:31.712Z,992.67
2017-06-30T00:16:31.701Z,992.62
2017-06-30T00:17:31.689Z,992.65
2017-06-30T00:18:31.679Z,992.64
2017-06-30T00:19:31.667Z,992.6
2017-06-30T00:20:31.656Z,992.63
2017-06-30T00:21:31.697Z,992.64
2017-06-30T00:22:31.634Z,992.66
2017-06-30T00:23:31.625Z,992.68
2017-06-30T00:24:31.612Z,992.65
2017-06-30T00:25:31.602Z,992.62
2017-06-30T00:26:31.592Z,992.63
2017-06-30T00:27:31.580Z,992.62
2017-06-30T00:28:31.579Z,992.63
2017-06-30T00:29:31.557Z,992.59
2017-06-30T00:30:31.546Z,992.58
2017-06-30T00:31:31.535Z,992.6
2017-06-30T00:32:31.525Z,992.6
2017-06-30T00:33:31.512Z,992.63
2017-06-30T00:34:31.501Z,992.6
2017-06-30T00:35:31.489Z,992.61
2017-06-30T00:36:31.479Z,992.59
2017-06-30T00:37:31.469Z,992.6
2017-06-30T00:38:31.457Z,992.61
2017-06-30T00:39:31.446Z,992.59
2017-06-30T00:40:31.436Z,992.61
2017-06-30T00:41:31.425Z,992.59
2017-06-30T00:42:31.413Z,992.59
2017-06-30T00:43:31.405Z,992.58
2017-06-30T00:44:31.395Z,992.56
2017-06-30T00:45:31.379Z,992.6
2017-06-30T00:46:31.368Z,992.59
2017-06-30T00:47:31.357Z,992.56
2017-06-30T00:48:31.346Z,992.58
2017-06-30T00:49:31.337Z,992.61
2017-06-30T00:50:31.325Z,992.61
2017-06-30T00:51:31.313Z,992.64
2017-06-30T00:52:31.302Z,992.66
2017-06-30T00:53:31.290Z,992.65
2017-06-30T00:54:31.280Z,992.64
2017-06-30T00:55:31.270Z,992.65
2017-06-30T00:56:31.257Z,992.68
2017-06-30T00:57:31.245Z,992.64
2017-06-30T00:58:31.237Z,992.67
2017-06-30T00:59:31.223Z,992.66
2017-06-30T01:00:31.213Z,992.66
2017-06-30T01:01:31.202Z,992.65
2017-06-30T01:02:31.194Z,992.64
2017-06-30T01:03:31.180Z,992.65
2017-06-30T01:04:31.169Z,992.68
2017-06-30T01:05:31.158Z,992.65
2017-06-30T01:06:31.146Z,992.65
2017-06-30T01:07:31.136Z,992.65
2017-06-30T01:08:31.125Z,992.65
2017-06-30T01:09:31.113Z,992.68
2017-06-30T01:10:31.104Z,992.68
2017-06-30T01:11:31.091Z,992.71
2017-06-30T01:12:31.079Z,992.7
2017-06-30T01:13:31.071Z,992.72
2017-06-30T01:14:31.057Z,992.69
2017-06-30T01:15:31.083Z,992.7
2017-06-30T01:16:31.035Z,992.7
2017-06-30T01:17:31.023Z,992.7
2017-06-30T01:18:31.013Z,992.72
2017-06-30T01:19:31.000Z,992.7
2017-06-30T01:20:30.991Z,992.71
2017-06-30T01:21:30.980Z,992.72
2017-06-30T01:22:30.969Z,992.68
2017-06-30T01:23:30.955Z,992.7
2017-06-30T01:24:30.945Z,992.74
2017-06-30T01:25:30.934Z,992.73
2017-06-30T01:26:30.923Z,992.72
2017-06-30T01:27:30.912Z,992.73
2017-06-30T01:28:30.901Z,992.73
2017-06-30T01:29:30.889Z,992.7
2017-06-30T01:30:30.877Z,992.74
2017-06-30T01:31:30.917Z,992.75
2017-06-30T01:32:30.856Z,992.72
2017-06-30T01:33:30.845Z,992.75
2017-06-30T01:34:30.833Z,992.76
2017-06-30T01:35:30.822Z,992.79
2017-06-30T01:36:30.843Z,992.77
2017-06-30T01:37:30.798Z,992.77
2017-06-30T01:38:30.789Z,992.75
2017-06-30T01:39:30.778Z,992.73
2017-06-30T01:40:30.765Z,992.76
2017-06-30T01:41:30.755Z,992.74
2017-06-30T01:42:30.747Z,992.76
2017-06-30T01:43:30.733Z,992.74
2017-06-30T01:44:30.722Z,992.74
2017-06-30T01:45:30.710Z,992.75
2017-06-30T01:46:30.696Z,992.76
2017-06-30T01:47:30.687Z,992.77
2017-06-30T01:48:30.676Z,992.76
2017-06-30T01:49:30.665Z,992.75
2017-06-30T01:50:30.656Z,992.79
2017-06-30T01:51:30.643Z,992.76
2017-06-30T01:52:30.629Z,992.76
2017-06-30T01:53:30.620Z,992.77
2017-06-30T01:54:30.608Z,992.78
2017-06-30T01:55:30.595Z,992.74
2017-06-30T01:56:30.588Z,992.77
2017-06-30T01:57:30.573Z,992.73
2017-06-30T01:58:30.562Z,992.78
2017-06-30T01:59:30.553Z,992.78
2017-06-30T02:00:30.540Z,992.78
2017-06-30T02:01:30.529Z,992.8
2017-06-30T02:02:30.519Z,992.8
2017-06-30T02:03:30.505Z,992.82
2017-06-30T02:04:30.494Z,992.83
2017-06-30T02:05:30.483Z,992.85
2017-06-30T02:06:30.471Z,992.86
2017-06-30T02:07:30.460Z,992.84
2017-06-30T02:08:30.449Z,992.83
2017-06-30T02:09:30.439Z,992.88
2017-06-30T02:10:30.425Z,992.87
2017-06-30T02:11:30.416Z,992.89
2017-06-30T02:12:30.403Z,992.91
2017-06-30T02:13:30.393Z,992.9
2017-06-30T02:14:30.380Z,992.9
2017-06-30T02:15:30.369Z,992.91
2017-06-30T02:16:30.358Z,992.9
2017-06-30T02:17:30.347Z,992.86
2017-06-30T02:18:30.336Z,992.88
2017-06-30T02:19:30.324Z,992.85
2017-06-30T02:20:30.313Z,992.87
2017-06-30T02:21:30.301Z,992.86
2017-06-30T02:22:30.290Z,992.91
2017-06-30T02:23:30.279Z,992.91
2017-06-30T02:24:30.267Z,992.89
2017-06-30T02:25:30.256Z,992.9
2017-06-30T02:26:30.243Z,992.92
2017-06-30T02:27:30.233Z,992.9
2017-06-30T02:28:30.221Z,992.87
2017-06-30T02:29:30.210Z,992.93
2017-06-30T02:30:30.198Z,992.93
2017-06-30T02:31:30.187Z,992.9
2017-06-30T02:32:30.176Z,992.91
2017-06-30T02:33:30.164Z,992.92
2017-06-30T02:34:30.153Z,992.92
2017-06-30T02:35:30.140Z,992.95
2017-06-30T02:36:30.131Z,992.95
2017-06-30T02:37:30.118Z,992.94
2017-06-30T02:38:30.107Z,992.94
2017-06-30T02:39:30.098Z,992.95
2017-06-30T02:40:30.084Z,992.97
2017-06-30T02:41:30.075Z,993
2017-06-30T02:42:30.064Z,992.95
2017-06-30T02:43:30.049Z,993.02
2017-06-30T02:44:30.038Z,992.96
2017-06-30T02:45:30.028Z,992.92
2017-06-30T02:46:30.017Z,992.98
2017-06-30T02:47:30.005Z,992.96
2017-06-30T02:48:29.992Z,993.01
2017-06-30T02:49:29.981Z,993.01
2017-06-30T02:50:29.969Z,993.03
2017-06-30T02:51:29.958Z,993.03
2017-06-30T02:52:29.950Z,993.01
2017-06-30T02:53:29.939Z,993.01
2017-06-30T02:54:29.923Z,993.04
2017-06-30T02:55:29.912Z,993.03
2017-06-30T02:56:29.903Z,993.03
2017-06-30T02:57:29.940Z,993.06
2017-06-30T02:58:29.878Z,993.09
2017-06-30T02:59:29.869Z,993.09
2017-06-30T03:00:29.856Z,993.07
2017-06-30T03:01:29.842Z,993.12
2017-06-30T03:02:29.832Z,993.13
2017-06-30T03:03:29.821Z,993.11
2017-06-30T03:04:29.810Z,993.11
2017-06-30T03:05:29.798Z,993.14
2017-06-30T03:06:29.788Z,993.13
2017-06-30T03:07:29.776Z,993.13
2017-06-30T03:08:29.764Z,993.12
2017-06-30T03:09:29.753Z,993.11
2017-06-30T03:10:29.740Z,993.17
2017-06-30T03:11:29.733Z,993.16
2017-06-30T03:12:29.721Z,993.14
2017-06-30T03:13:29.707Z,993.18
2017-06-30T03:14:29.695Z,993.14
2017-06-30T03:15:29.683Z,993.17
2017-06-30T03:16:29.670Z,993.15
2017-06-30T03:17:29.658Z,993.15
2017-06-30T03:18:29.648Z,993.16
2017-06-30T03:19:29.637Z,993.14
2017-06-30T03:20:29.626Z,993.19
2017-06-30T03:21:29.614Z,993.18
2017-06-30T03:22:29.603Z,993.19
2017-06-30T03:23:29.592Z,993.18
2017-06-30T03:24:29.582Z,993.19
2017-06-30T03:25:29.567Z,993.17
2017-06-30T03:26:29.557Z,993.14
2017-06-30T03:27:29.544Z,993.18
2017-06-30T03:28:29.533Z,993.2
2017-06-30T03:29:29.529Z,993.18
2017-06-30T03:30:29.510Z,993.19
2017-06-30T03:31:29.499Z,993.23
2017-06-30T03:32:29.490Z,993.21
2017-06-30T03:33:29.484Z,993.21
2017-06-30T03:34:29.466Z,993.21
2017-06-30T03:35:29.454Z,993.2
2017-06-30T03:36:29.444Z,993.24
2017-06-30T03:37:29.434Z,993.2
2017-06-30T03:38:29.419Z,993.26
2017-06-30T03:39:29.409Z,993.24
2017-06-30T03:40:29.398Z,993.24
2017-06-30T03:41:29.386Z,993.28
2017-06-30T03:42:29.374Z,993.23
2017-06-30T03:43:29.363Z,993.27
2017-06-30T03:44:29.353Z,993.27
2017-06-30T03:45:29.340Z,993.29
2017-06-30T03:46:29.530Z,993.27
2017-06-30T03:47:29.316Z,993.27
2017-06-30T03:48:29.307Z,993.29
2017-06-30T03:49:29.296Z,993.31
2017-06-30T03:50:29.280Z,993.27
2017-06-30T03:51:29.273Z,993.26
2017-06-30T03:52:29.262Z,993.26
2017-06-30T03:53:29.250Z,993.27
2017-06-30T03:54:29.236Z,993.31
2017-06-30T03:55:29.227Z,993.27
2017-06-30T03:56:29.212Z,993.27
2017-06-30T03:57:29.199Z,993.33
2017-06-30T03:58:29.194Z,993.31
2017-06-30T03:59:29.180Z,993.32
2017-06-30T04:00:29.169Z,993.33
2017-06-30T04:01:29.154Z,993.32
2017-06-30T04:02:29.146Z,993.34
2017-06-30T04:03:29.130Z,993.31
2017-06-30T04:04:29.120Z,993.33
2017-06-30T04:05:29.108Z,993.35
2017-06-30T04:06:29.099Z,993.34
2017-06-30T04:07:29.086Z,993.34
2017-06-30T04:08:29.073Z,993.36
2017-06-30T04:09:29.064Z,993.34
2017-06-30T04:10:29.050Z,993.33
2017-06-30T04:11:29.038Z,993.37
2017-06-30T04:12:29.030Z,993.39
2017-06-30T04:13:29.018Z,993.35
2017-06-30T04:14:29.004Z,993.38
2017-06-30T04:15:28.993Z,993.35
2017-06-30T04:16:28.980Z,993.4
2017-06-30T04:17:28.969Z,993.39
2017-06-30T04:18:28.958Z,993.39
2017-06-30T04:19:28.948Z,993.4
2017-06-30T04:20:28.935Z,993.43
2017-06-30T04:21:28.922Z,993.43
2017-06-30T04:22:28.911Z,993.46
2017-06-30T04:23:28.900Z,993.42
2017-06-30T04:24:28.888Z,993.44
2017-06-30T04:25:28.877Z,993.45
2017-06-30T04:26:28.866Z,993.45
2017-06-30T04:27:28.853Z,993.47
2017-06-30T04:28:28.842Z,993.49
2017-06-30T04:29:28.830Z,993.48
2017-06-30T04:30:28.819Z,993.49
2017-06-30T04:31:28.807Z,993.48
2017-06-30T04:32:28.794Z,993.5
2017-06-30T04:33:28.787Z,993.51
2017-06-30T04:34:28.824Z,993.54
2017-06-30T04:35:28.760Z,993.55
2017-06-30T04:36:28.749Z,993.54
2017-06-30T04:37:28.740Z,993.58
2017-06-30T04:38:28.780Z,993.53
2017-06-30T04:39:28.715Z,993.55
2017-06-30T04:40:28.703Z,993.56
2017-06-30T04:41:28.692Z,993.55
2017-06-30T04:42:28.681Z,993.55
2017-06-30T04:43:28.669Z,993.54
2017-06-30T04:44:28.707Z,993.58
2017-06-30T04:45:28.647Z,993.57
2017-06-30T04:46:28.639Z,993.63
2017-06-30T04:47:28.623Z,993.64
2017-06-30T04:48:28.612Z,993.69
2017-06-30T04:49:28.601Z,993.65
2017-06-30T04:50:28.591Z,993.66
2017-06-30T04:51:28.577Z,993.69
2017-06-30T04:52:28.569Z,993.69
2017-06-30T04:53:28.555Z,993.71
2017-06-30T04:54:28.547Z,993.68
2017-06-30T04:55:28.574Z,993.71
2017-06-30T04:56:28.522Z,993.69
2017-06-30T04:57:28.512Z,993.73
2017-06-30T04:58:28.499Z,993.76
2017-06-30T04:59:28.491Z,993.78
2017-06-30T05:00:28.477Z,993.79
2017-06-30T05:01:28.465Z,993.76
2017-06-30T05:02:28.454Z,993.82
2017-06-30T05:03:28.443Z,993.77
2017-06-30T05:04:28.433Z,993.79
2017-06-30T05:05:28.420Z,993.83
2017-06-30T05:06:28.409Z,993.84
2017-06-30T05:07:28.398Z,993.88
2017-06-30T05:08:28.388Z,993.88
2017-06-30T05:09:28.375Z,993.88
2017-06-30T05:10:28.367Z,993.89
2017-06-30T05:11:28.354Z,993.88
2017-06-30T05:12:28.345Z,993.89
2017-06-30T05:13:28.331Z,993.88
2017-06-30T05:14:28.324Z,993.87
2017-06-30T05:15:28.309Z,993.88
2017-06-30T05:16:28.298Z,993.89
2017-06-30T05:17:28.337Z,993.87
2017-06-30T05:18:28.279Z,993.94
2017-06-30T05:19:28.265Z,993.88
2017-06-30T05:20:28.255Z,993.87
2017-06-30T05:21:28.244Z,993.87
2017-06-30T05:22:28.233Z,993.91
2017-06-30T05:23:28.221Z,993.87
2017-06-30T05:24:28.210Z,993.9
2017-06-30T05:25:28.200Z,993.86
2017-06-30T05:26:28.189Z,993.85
2017-06-30T05:27:28.177Z,993.9
2017-06-30T05:28:28.166Z,993.92
2017-06-30T05:29:28.156Z,993.93
2017-06-30T05:30:28.144Z,994
2017-06-30T05:31:28.134Z,993.98
2017-06-30T05:32:28.124Z,993.95
2017-06-30T05:33:28.161Z,993.95
2017-06-30T05:34:28.102Z,994.01
2017-06-30T05:35:28.090Z,993.97
2017-06-30T05:36:28.082Z,993.99
2017-06-30T05:37:28.069Z,993.98
2017-06-30T05:38:28.057Z,994.03
2017-06-30T05:39:28.047Z,994.03
2017-06-30T05:40:28.035Z,994.01
2017-06-30T05:41:28.026Z,994.09
2017-06-30T05:42:28.066Z,994.07
2017-06-30T05:43:28.004Z,994.1
2017-06-30T05:44:27.992Z,994.09
2017-06-30T05:45:27.983Z,994.07
2017-06-30T05:46:28.175Z,994.12
2017-06-30T05:47:27.961Z,994.17
2017-06-30T05:48:27.952Z,994.11
2017-06-30T05:49:27.941Z,994.18
2017-06-30T05:50:27.930Z,994.15
2017-06-30T05:51:27.922Z,994.2
2017-06-30T05:52:27.910Z,994.19
2017-06-30T05:53:27.900Z,994.22
2017-06-30T05:54:27.887Z,994.24
2017-06-30T05:55:27.877Z,994.24
2017-06-30T05:56:27.870Z,994.24
2017-06-30T05:57:27.856Z,994.27
2017-06-30T05:58:27.881Z,994.27
2017-06-30T05:59:27.836Z,994.28
2017-06-30T06:00:27.824Z,994.33
2017-06-30T06:01:27.813Z,994.38
2017-06-30T06:02:27.802Z,994.37
2017-06-30T06:03:27.792Z,994.4
2017-06-30T06:04:27.782Z,994.35
2017-06-30T06:05:27.770Z,994.46
2017-06-30T06:06:27.760Z,994.38
2017-06-30T06:07:27.749Z,994.4
2017-06-30T06:08:27.740Z,994.48
2017-06-30T06:09:27.726Z,994.47
2017-06-30T06:10:27.719Z,994.5
2017-06-30T06:11:27.706Z,994.49
2017-06-30T06:12:27.695Z,994.44
2017-06-30T06:13:27.684Z,994.44
2017-06-30T06:14:27.674Z,994.53
2017-06-30T06:15:27.661Z,994.5
2017-06-30T06:16:27.651Z,994.56
2017-06-30T06:17:27.640Z,994.6
2017-06-30T06:18:27.633Z,994.57
2017-06-30T06:19:27.667Z,994.61
2017-06-30T06:20:27.606Z,994.59
2017-06-30T06:21:27.595Z,994.58
2017-06-30T06:22:27.584Z,994.55
2017-06-30T06:23:27.573Z,994.56
2017-06-30T06:24:27.562Z,994.55
2017-06-30T06:25:27.551Z,994.55
2017-06-30T06:26:27.540Z,994.61
2017-06-30T06:27:27.529Z,994.67
2017-06-30T06:28:27.518Z,994.62
2017-06-30T06:29:27.506Z,994.61
2017-06-30T06:30:27.495Z,994.61
2017-06-30T06:31:27.483Z,994.65
2017-06-30T06:32:27.471Z,994.66
2017-06-30T06:33:27.461Z,994.65
2017-06-30T06:34:27.448Z,994.64
2017-06-30T06:35:27.437Z,994.66
2017-06-30T06:36:27.426Z,994.63
2017-06-30T06:37:27.416Z,994.66
2017-06-30T06:38:27.403Z,994.67
2017-06-30T06:39:27.392Z,994.64
2017-06-30T06:40:27.381Z,994.68
2017-06-30T06:41:27.373Z,994.68
2017-06-30T06:42:27.359Z,994.68
2017-06-30T06:43:27.347Z,994.64
2017-06-30T06:44:27.335Z,994.67
2017-06-30T06:45:27.331Z,994.67
2017-06-30T06:46:27.313Z,994.69
2017-06-30T06:47:27.302Z,994.69
2017-06-30T06:48:27.289Z,994.72
2017-06-30T06:49:27.279Z,994.71
2017-06-30T06:50:27.269Z,994.71
2017-06-30T06:51:27.257Z,994.73
2017-06-30T06:52:27.247Z,994.73
2017-06-30T06:53:27.234Z,994.72
2017-06-30T06:54:27.222Z,994.73
2017-06-30T06:55:27.209Z,994.78
2017-06-30T06:56:27.200Z,994.76
2017-06-30T06:57:27.193Z,994.76
2017-06-30T06:58:27.178Z,994.78
2017-06-30T06:59:27.168Z,994.78
2017-06-30T07:00:27.156Z,994.81
2017-06-30T07:01:27.146Z,994.84
2017-06-30T07:02:27.133Z,994.87
2017-06-30T07:03:27.124Z,994.86
2017-06-30T07:04:27.111Z,994.85
2017-06-30T07:05:27.101Z,994.82
2017-06-30T07:06:27.089Z,994.84
2017-06-30T07:07:27.078Z,994.85
2017-06-30T07:08:27.069Z,994.89
2017-06-30T07:09:27.057Z,994.9
2017-06-30T07:10:27.045Z,994.88
2017-06-30T07:11:27.036Z,994.89
2017-06-30T07:12:27.026Z,994.88
2017-06-30T07:13:27.012Z,994.9
2017-06-30T07:14:27.003Z,994.94
2017-06-30T07:15:26.993Z,994.9
2017-06-30T07:16:26.983Z,994.89
2017-06-30T07:17:26.970Z,994.85
2017-06-30T07:18:26.960Z,994.91
2017-06-30T07:19:26.950Z,994.84
2017-06-30T07:20:26.938Z,994.86
2017-06-30T07:21:26.929Z,994.88
2017-06-30T07:22:26.919Z,994.88
2017-06-30T07:23:26.909Z,994.9
2017-06-30T07:24:26.898Z,994.92
2017-06-30T07:25:26.895Z,994.95
2017-06-30T07:26:26.880Z,994.89
2017-06-30T07:27:26.866Z,994.93
2017-06-30T07:28:26.857Z,994.94
2017-06-30T07:29:26.848Z,994.94
2017-06-30T07:30:26.837Z,994.99
2017-06-30T07:31:26.825Z,994.97
2017-06-30T07:32:26.817Z,994.93
2017-06-30T07:33:26.808Z,994.97
2017-06-30T07:34:26.799Z,994.93
2017-06-30T07:35:26.784Z,994.94
2017-06-30T07:36:26.776Z,994.94
2017-06-30T07:37:26.766Z,994.98
2017-06-30T07:38:26.756Z,994.96
2017-06-30T07:39:26.747Z,995.01
2017-06-30T07:40:26.738Z,994.97
2017-06-30T07:41:26.728Z,994.96
2017-06-30T07:42:26.721Z,994.94
2017-06-30T07:43:26.709Z,994.89
2017-06-30T07:44:26.699Z,994.9
2017-06-30T07:45:26.692Z,994.95
2017-06-30T07:46:26.883Z,994.97
2017-06-30T07:47:26.669Z,994.95
2017-06-30T07:48:26.661Z,994.9
2017-06-30T07:49:26.651Z,994.92
2017-06-30T07:50:26.641Z,994.97
2017-06-30T07:51:26.639Z,994.95
2017-06-30T07:52:26.624Z,994.96
2017-06-30T07:53:26.616Z,994.98
2017-06-30T07:54:26.604Z,994.96
2017-06-30T07:55:26.596Z,994.98
2017-06-30T07:56:26.587Z,994.93
2017-06-30T07:57:26.588Z,994.98
2017-06-30T07:58:26.571Z,994.97
2017-06-30T07:59:26.557Z,994.93
2017-06-30T08:00:26.550Z,995.01
2017-06-30T08:01:26.540Z,995.07
2017-06-30T08:02:26.531Z,995
2017-06-30T08:03:26.523Z,995.04
2017-06-30T08:04:26.512Z,995.02
2017-06-30T08:05:26.502Z,995.03
2017-06-30T08:06:26.498Z,995.05
2017-06-30T08:07:26.485Z,995.06
2017-06-30T08:08:26.517Z,995.05
2017-06-30T08:09:26.467Z,995.06
2017-06-30T08:10:26.456Z,995.01
2017-06-30T08:11:26.448Z,995.1
2017-06-30T08:12:26.446Z,995.12
2017-06-30T08:13:26.432Z,995.1
2017-06-30T08:14:26.422Z,995.09
2017-06-30T08:15:26.413Z,995.1
2017-06-30T08:16:26.409Z,995.15
2017-06-30T08:17:26.397Z,995.06
2017-06-30T08:18:26.396Z,995.08
2017-06-30T08:19:26.379Z,995.05
2017-06-30T08:20:26.370Z,995.03
2017-06-30T08:21:26.364Z,995.08
2017-06-30T08:22:26.358Z,995.07
2017-06-30T08:23:26.349Z,995.04
2017-06-30T08:24:26.342Z,995.09
2017-06-30T08:25:26.333Z,995.07
2017-06-30T08:26:26.322Z,995.19
2017-06-30T08:27:26.316Z,995.06
2017-06-30T08:28:26.306Z,995.1
2017-06-30T08:29:26.298Z,995.09
2017-06-30T08:30:26.292Z,995.04
2017-06-30T08:31:26.282Z,995.13
2017-06-30T08:32:26.273Z,995.09
2017-06-30T08:33:26.271Z,995.07
2017-06-30T08:34:26.260Z,995.05
2017-06-30T08:35:26.248Z,995.07
2017-06-30T08:36:26.240Z,995.09
2017-06-30T08:37:26.230Z,995.06
2017-06-30T08:38:26.226Z,995.1
2017-06-30T08:39:26.218Z,995.09
2017-06-30T08:40:26.207Z,995.04
2017-06-30T08:41:26.203Z,995.02
2017-06-30T08:42:26.189Z,995.04
2017-06-30T08:43:26.180Z,995.01
2017-06-30T08:44:26.175Z,995.07
2017-06-30T08:45:26.168Z,995.1
2017-06-30T08:46:26.156Z,995.11
2017-06-30T08:47:26.148Z,995.08
2017-06-30T08:48:26.137Z,995.05
2017-06-30T08:49:26.131Z,995.07
2017-06-30T08:50:26.125Z,995.03
2017-06-30T08:51:26.117Z,995.12
2017-06-30T08:52:26.108Z,995
2017-06-30T08:53:26.101Z,995.03
2017-06-30T08:54:26.092Z,995.03
2017-06-30T08:55:26.087Z,995.03
2017-06-30T08:56:26.079Z,995
2017-06-30T08:57:26.070Z,995.01
2017-06-30T08:58:26.068Z,995.04
2017-06-30T08:59:26.053Z,995.08
2017-06-30T09:00:26.048Z,995.04
2017-06-30T09:01:26.039Z,995.03
2017-06-30T09:02:26.034Z,995.08
2017-06-30T09:03:26.023Z,995.1
2017-06-30T09:04:26.020Z,995.12
2017-06-30T09:05:26.012Z,995.12
2017-06-30T09:06:25.998Z,995.11
2017-06-30T09:07:25.991Z,995.1
2017-06-30T09:08:25.984Z,995.12
2017-06-30T09:09:25.980Z,995.13
2017-06-30T09:10:25.968Z,995.16
2017-06-30T09:11:25.961Z,995.15
2017-06-30T09:12:25.952Z,995.19
2017-06-30T09:13:25.950Z,995.17
2017-06-30T09:14:25.936Z,995.26
2017-06-30T09:15:25.929Z,995.14
2017-06-30T09:16:25.921Z,995.2
2017-06-30T09:17:25.912Z,995.17
2017-06-30T09:18:25.904Z,995.24
2017-06-30T09:19:25.898Z,995.23
2017-06-30T09:20:25.889Z,995.24
2017-06-30T09:21:25.880Z,995.22
2017-06-30T09:22:25.874Z,995.22
2017-06-30T09:23:25.866Z,995.2
2017-06-30T09:24:25.857Z,995.22
2017-06-30T09:25:25.851Z,995.23
2017-06-30T09:26:25.841Z,995.22
2017-06-30T09:27:25.836Z,995.25
2017-06-30T09:28:25.824Z,995.16
2017-06-30T09:29:25.818Z,995.19
2017-06-30T09:30:25.810Z,995.17
2017-06-30T09:31:25.801Z,995.19
2017-06-30T09:32:25.792Z,995.22
2017-06-30T09:33:25.785Z,995.22
2017-06-30T09:34:25.777Z,995.29
2017-06-30T09:35:25.770Z,995.21
2017-06-30T09:36:25.761Z,995.18
2017-06-30T09:37:25.767Z,995.23
2017-06-30T09:38:25.746Z,995.22
2017-06-30T09:39:25.737Z,995.29
2017-06-30T09:40:25.730Z,995.38
2017-06-30T09:41:25.723Z,995.3
2017-06-30T09:42:25.715Z,995.38
2017-06-30T09:43:25.707Z,995.36
2017-06-30T09:44:25.700Z,995.35
2017-06-30T09:45:25.693Z,995.26
2017-06-30T09:46:25.909Z,995.34
2017-06-30T09:47:25.679Z,995.39
2017-06-30T09:48:25.671Z,995.4
2017-06-30T09:49:25.664Z,995.32
2017-06-30T09:50:25.657Z,995.46
2017-06-30T09:51:25.652Z,995.41
2017-06-30T09:52:25.643Z,995.28
2017-06-30T09:53:25.642Z,995.36
2017-06-30T09:54:25.631Z,995.36
2017-06-30T09:55:25.626Z,995.4
2017-06-30T09:56:25.618Z,995.37
2017-06-30T09:57:25.611Z,995.36
2017-06-30T09:58:25.603Z,995.42
2017-06-30T09:59:25.597Z,995.48
2017-06-30T10:00:25.591Z,995.46
2017-06-30T10:01:25.584Z,995.51
2017-06-30T10:02:25.577Z,995.47
2017-06-30T10:03:25.580Z,995.48
2017-06-30T10:04:25.565Z,995.35
2017-06-30T10:05:25.558Z,995.38
2017-06-30T10:06:25.552Z,995.38
2017-06-30T10:07:25.547Z,995.4
2017-06-30T10:08:25.543Z,995.48
2017-06-30T10:09:25.535Z,995.36
2017-06-30T10:10:25.533Z,995.38
2017-06-30T10:11:25.522Z,995.49
2017-06-30T10:12:25.517Z,995.38
2017-06-30T10:13:25.510Z,995.37
2017-06-30T10:14:25.504Z,995.5
2017-06-30T10:15:25.506Z,995.41
2017-06-30T10:16:25.491Z,995.39
2017-06-30T10:17:25.485Z,995.52
2017-06-30T10:18:25.481Z,995.81
2017-06-30T10:19:25.475Z,995.49
2017-06-30T10:20:25.468Z,995.38
2017-06-30T10:21:25.463Z,995.43
2017-06-30T10:22:25.459Z,995.43
2017-06-30T10:23:25.451Z,995.44
2017-06-30T10:24:25.446Z,995.45
2017-06-30T10:25:25.440Z,995.4
2017-06-30T10:26:25.434Z,995.45
2017-06-30T10:27:25.444Z,995.9
2017-06-30T10:28:25.423Z,995.77
2017-06-30T10:29:25.420Z,996
2017-06-30T10:30:25.414Z,995.92
2017-06-30T10:31:25.409Z,995.92
2017-06-30T10:32:25.406Z,995.79
2017-06-30T10:33:25.402Z,995.55
2017-06-30T10:34:25.396Z,995.87
2017-06-30T10:35:25.394Z,995.93
2017-06-30T10:36:25.388Z,996.09
2017-06-30T10:37:25.387Z,995.85
2017-06-30T10:38:25.383Z,995.91
2017-06-30T10:39:25.381Z,995.47
2017-06-30T10:40:25.377Z,995.47
2017-06-30T10:41:25.373Z,995.82
2017-06-30T10:42:25.370Z,995.76
2017-06-30T10:43:25.368Z,995.86
2017-06-30T10:44:25.366Z,995.84
2017-06-30T10:45:25.364Z,995.76
2017-06-30T10:46:25.360Z,995.76
2017-06-30T10:47:25.359Z,995.78
2017-06-30T10:48:25.355Z,995.74
2017-06-30T10:49:25.354Z,995.69
2017-06-30T10:50:25.349Z,995.66
2017-06-30T10:51:25.350Z,995.63
2017-06-30T10:52:25.349Z,995.67
2017-06-30T10:53:25.344Z,995.56
2017-06-30T10:54:25.344Z,995.67
2017-06-30T10:55:25.339Z,995.56
2017-06-30T10:56:25.339Z,995.63
2017-06-30T10:57:25.338Z,995.63
2017-06-30T10:58:25.337Z,995.57
2017-06-30T10:59:25.335Z,995.49
2017-06-30T11:00:25.334Z,995.58
2017-06-30T11:01:25.333Z,995.53
2017-06-30T11:02:25.331Z,995.49
2017-06-30T11:03:25.329Z,995.47
2017-06-30T11:04:25.328Z,995.46
2017-06-30T11:05:25.327Z,995.44
2017-06-30T11:06:25.326Z,995.52
2017-06-30T11:07:25.323Z,995.47
2017-06-30T11:08:25.322Z,995.51
2017-06-30T11:09:25.321Z,995.66
2017-06-30T11:10:25.318Z,995.64
2017-06-30T11:11:25.316Z,995.59
2017-06-30T11:12:25.314Z,995.6
2017-06-30T11:13:25.314Z,995.63
2017-06-30T11:14:25.309Z,995.7
2017-06-30T11:15:25.357Z,995.58
2017-06-30T11:16:25.308Z,995.63
2017-06-30T11:17:25.305Z,995.55
2017-06-30T11:18:25.304Z,995.58
2017-06-30T11:19:25.305Z,995.65
2017-06-30T11:20:25.301Z,995.59
2017-06-30T11:21:25.300Z,995.53
2017-06-30T11:22:25.299Z,995.58
2017-06-30T11:23:25.297Z,995.6
2017-06-30T11:24:25.295Z,995.63
2017-06-30T11:25:25.293Z,995.54
2017-06-30T11:26:25.294Z,995.55
2017-06-30T11:27:25.289Z,995.54
2017-06-30T11:28:25.289Z,995.64
2017-06-30T11:29:25.285Z,995.6
2017-06-30T11:30:25.286Z,995.6
2017-06-30T11:31:25.281Z,995.55
2017-06-30T11:32:25.278Z,995.61
2017-06-30T11:33:25.272Z,995.59
2017-06-30T11:34:25.272Z,995.6
2017-06-30T11:35:25.266Z,995.55
2017-06-30T11:36:25.264Z,995.57
2017-06-30T11:37:25.259Z,995.57
2017-06-30T11:38:25.256Z,995.6
2017-06-30T11:39:25.251Z,995.61
2017-06-30T11:40:25.249Z,995.63
2017-06-30T11:41:25.241Z,995.61
2017-06-30T11:42:25.238Z,995.65
2017-06-30T11:43:25.234Z,995.55
2017-06-30T11:44:25.229Z,995.56
2017-06-30T11:45:25.225Z,995.53
2017-06-30T11:46:25.423Z,995.47
2017-06-30T11:47:25.214Z,995.51
2017-06-30T11:48:25.210Z,995.48
2017-06-30T11:49:25.209Z,995.49
2017-06-30T11:50:25.201Z,995.52
2017-06-30T11:51:25.198Z,995.54
2017-06-30T11:52:25.200Z,995.54
2017-06-30T11:53:25.189Z,995.55
2017-06-30T11:54:25.182Z,995.58
2017-06-30T11:55:25.179Z,995.5
2017-06-30T11:56:25.173Z,995.53
2017-06-30T11:57:25.168Z,995.51
2017-06-30T11:58:25.162Z,995.53
2017-06-30T11:59:25.159Z,995.59
2017-06-30T12:00:25.153Z,995.57
2017-06-30T12:01:25.147Z,995.63
2017-06-30T12:02:25.149Z,995.6
2017-06-30T12:03:25.143Z,995.64
2017-06-30T12:04:25.130Z,995.64
2017-06-30T12:05:25.125Z,995.64
2017-06-30T12:06:25.119Z,995.62
2017-06-30T12:07:25.118Z,995.62
2017-06-30T12:08:25.111Z,995.63
2017-06-30T12:09:25.104Z,995.64
2017-06-30T12:10:25.098Z,995.67
2017-06-30T12:11:25.094Z,995.57
2017-06-30T12:12:25.088Z,995.67
2017-06-30T12:13:25.082Z,995.62
2017-06-30T12:14:25.078Z,995.65
2017-06-30T12:15:25.077Z,995.56
2017-06-30T12:16:25.070Z,995.61
2017-06-30T12:17:25.063Z,995.59
2017-06-30T12:18:25.057Z,995.58
2017-06-30T12:19:25.051Z,995.56
2017-06-30T12:20:25.044Z,995.74
2017-06-30T12:21:25.039Z,995.63
2017-06-30T12:22:25.034Z,995.65
2017-06-30T12:23:25.027Z,995.63
2017-06-30T12:24:25.020Z,995.64
2017-06-30T12:25:25.016Z,995.64
2017-06-30T12:26:25.010Z,995.68
2017-06-30T12:27:25.002Z,995.73
2017-06-30T12:28:24.995Z,995.65
2017-06-30T12:29:24.989Z,995.62
2017-06-30T12:30:24.983Z,995.64
2017-06-30T12:31:24.977Z,995.72